createdAt,value
2018-08-19T00:00:12.055Z,18.74
2018-08-19T00:01:11.974Z,18.71
2018-08-19T00:02:11.958Z,18.70
2018-08-19T00:03:11.939Z,18.70
2018-08-19T00:04:11.888Z,18.63
2018-08-19T00:05:11.872Z,18.59
2018-08-19T00:06:11.852Z,18.60
2018-08-19T00:07:11.813Z,18.62
2018-08-19T00:08:11.792Z,18.63
2018-08-19T00:09:11.779Z,18.62
2018-08-19T00:10:11.770Z,18.62
2018-08-19T00:11:11.735Z,18.68
2018-08-19T00:12:11.695Z,18.63
2018-08-19T00:13:11.672Z,18.62
2018-08-19T00:14:11.639Z,18.63
2018-08-19T00:15:11.618Z,18.58
2018-08-19T00:16:11.588Z,18.52
2018-08-19T00:17:11.595Z,18.47
2018-08-19T00:18:11.553Z,18.52
2018-08-19T00:19:11.537Z,18.40
2018-08-19T00:20:11.491Z,18.52
2018-08-19T00:21:11.474Z,18.45
2018-08-19T00:22:11.442Z,18.52
2018-08-19T00:23:11.415Z,18.47
2018-08-19T00:24:11.390Z,18.49
2018-08-19T00:25:11.402Z,18.45
2018-08-19T00:26:11.344Z,18.44
2018-08-19T00:27:11.316Z,18.50
2018-08-19T00:28:11.307Z,18.52
2018-08-19T00:29:11.266Z,18.53
2018-08-19T00:30:11.283Z,18.49
2018-08-19T00:31:11.218Z,18.45
2018-08-19T00:32:11.192Z,18.44
2018-08-19T00:33:11.164Z,18.35
2018-08-19T00:34:11.186Z,18.35
2018-08-19T00:35:11.156Z,18.41
2018-08-19T00:36:11.090Z,18.35
2018-08-19T00:37:11.066Z,18.38
2018-08-19T00:38:11.054Z,18.41
2018-08-19T00:39:11.014Z,18.26
2018-08-19T00:40:10.993Z,18.26
2018-08-19T00:41:10.960Z,18.23
2018-08-19T00:42:10.935Z,18.28
2018-08-19T00:43:10.931Z,18.34
2018-08-19T00:44:10.893Z,18.34
2018-08-19T00:45:10.866Z,18.40
2018-08-19T00:46:10.835Z,18.31
2018-08-19T00:47:10.816Z,18.31
2018-08-19T00:48:10.786Z,18.31
2018-08-19T00:49:10.771Z,18.23
2018-08-19T00:50:10.730Z,18.29
2018-08-19T00:51:10.714Z,18.33
2018-08-19T00:52:10.695Z,18.16
2018-08-19T00:53:10.658Z,18.15
2018-08-19T00:54:10.635Z,18.20
2018-08-19T00:55:10.666Z,18.19
2018-08-19T00:56:10.605Z,18.18
2018-08-19T00:57:10.569Z,18.10
2018-08-19T00:58:10.534Z,18.18
2018-08-19T00:59:10.541Z,18.16
2018-08-19T01:00:10.488Z,18.04
2018-08-19T01:01:10.481Z,18.15
2018-08-19T01:02:10.439Z,18.07
2018-08-19T01:03:10.456Z,18.07
2018-08-19T01:04:10.447Z,18.10
2018-08-19T01:05:10.353Z,18.15
2018-08-19T01:06:10.341Z,18.08
2018-08-19T01:07:10.308Z,18.07
2018-08-19T01:08:10.314Z,18.15
2018-08-19T01:09:10.251Z,18.18
2018-08-19T01:10:10.232Z,18.16
2018-08-19T01:11:10.255Z,18.22
2018-08-19T01:12:10.176Z,18.22
2018-08-19T01:13:10.153Z,18.19
2018-08-19T01:14:10.159Z,18.34
2018-08-19T01:15:10.106Z,18.29
2018-08-19T01:16:10.078Z,18.29
2018-08-19T01:17:10.081Z,18.26
2018-08-19T01:18:10.028Z,18.18
2018-08-19T01:19:10.009Z,18.16
2018-08-19T01:20:09.978Z,18.25
2018-08-19T01:21:09.963Z,18.13
2018-08-19T01:22:09.924Z,18.15
2018-08-19T01:23:09.932Z,18.11
2018-08-19T01:24:09.878Z,18.13
2018-08-19T01:25:09.858Z,18.28
2018-08-19T01:26:09.827Z,18.16
2018-08-19T01:27:09.804Z,18.33
2018-08-19T01:28:09.775Z,18.20
2018-08-19T01:29:09.770Z,18.18
2018-08-19T01:30:09.775Z,18.18
2018-08-19T01:31:09.701Z,18.10
2018-08-19T01:32:09.674Z,18.16
2018-08-19T01:33:09.664Z,18.15
2018-08-19T01:34:09.665Z,18.13
2018-08-19T01:35:09.659Z,18.19
2018-08-19T01:36:09.574Z,18.07
2018-08-19T01:37:09.553Z,18.15
2018-08-19T01:38:09.529Z,18.15
2018-08-19T01:39:09.509Z,18.05
2018-08-19T01:40:09.473Z,18.03
2018-08-19T01:41:09.460Z,18.05
2018-08-19T01:42:09.423Z,18.03
2018-08-19T01:43:09.395Z,18.10
2018-08-19T01:44:09.368Z,18.00
2018-08-19T01:45:09.367Z,18.05
2018-08-19T01:46:09.323Z,17.97
2018-08-19T01:47:09.292Z,18.03
2018-08-19T01:48:09.272Z,18.05
2018-08-19T01:49:09.248Z,18.00
2018-08-19T01:50:09.221Z,17.95
2018-08-19T01:51:09.207Z,17.97
2018-08-19T01:52:09.172Z,18.00
2018-08-19T01:53:09.143Z,17.94
2018-08-19T01:54:09.119Z,17.95
2018-08-19T01:55:09.168Z,17.98
2018-08-19T01:56:09.075Z,17.85
2018-08-19T01:57:09.056Z,17.85
2018-08-19T01:58:09.019Z,17.82
2018-08-19T01:59:08.994Z,17.85
2018-08-19T02:00:08.978Z,17.85
2018-08-19T02:01:08.946Z,17.87
2018-08-19T02:02:08.920Z,17.92
2018-08-19T02:03:08.897Z,17.92
2018-08-19T02:04:08.865Z,17.86
2018-08-19T02:05:08.920Z,17.90
2018-08-19T02:06:08.819Z,17.95
2018-08-19T02:07:08.802Z,17.92
2018-08-19T02:08:08.772Z,17.98
2018-08-19T02:09:08.754Z,17.97
2018-08-19T02:10:08.722Z,18.01
2018-08-19T02:11:08.686Z,18.00
2018-08-19T02:12:08.671Z,18.08
2018-08-19T02:13:08.644Z,18.05
2018-08-19T02:14:08.617Z,18.05
2018-08-19T02:15:08.602Z,18.00
2018-08-19T02:16:08.563Z,18.04
2018-08-19T02:17:08.539Z,18.00
2018-08-19T02:18:08.513Z,18.03
2018-08-19T02:19:08.505Z,18.04
2018-08-19T02:20:08.464Z,18.04
2018-08-19T02:21:08.470Z,18.00
2018-08-19T02:22:08.415Z,17.98
2018-08-19T02:23:08.392Z,18.08
2018-08-19T02:24:08.359Z,17.92
2018-08-19T02:25:08.343Z,17.86
2018-08-19T02:26:08.362Z,17.97
2018-08-19T02:27:08.287Z,17.92
2018-08-19T02:28:08.278Z,17.86
2018-08-19T02:29:08.267Z,17.86
2018-08-19T02:30:08.217Z,17.89
2018-08-19T02:31:08.182Z,17.79
2018-08-19T02:32:08.171Z,17.76
2018-08-19T02:33:08.134Z,17.79
2018-08-19T02:34:08.120Z,17.79
2018-08-19T02:35:08.083Z,17.86
2018-08-19T02:36:08.065Z,17.76
2018-08-19T02:37:08.081Z,17.79
2018-08-19T02:38:08.031Z,17.74
2018-08-19T02:39:07.980Z,17.83
2018-08-19T02:40:07.957Z,17.80
2018-08-19T02:41:07.989Z,17.74
2018-08-19T02:42:07.912Z,17.72
2018-08-19T02:43:07.903Z,17.79
2018-08-19T02:44:07.861Z,17.83
2018-08-19T02:45:07.828Z,17.83
2018-08-19T02:46:07.808Z,17.79
2018-08-19T02:47:07.780Z,17.72
2018-08-19T02:48:07.757Z,17.79
2018-08-19T02:49:07.730Z,17.80
2018-08-19T02:50:07.709Z,17.65
2018-08-19T02:51:07.683Z,17.68
2018-08-19T02:52:07.664Z,17.71
2018-08-19T02:53:07.625Z,17.67
2018-08-19T02:54:07.606Z,17.78
2018-08-19T02:55:07.589Z,17.80
2018-08-19T02:56:07.553Z,17.74
2018-08-19T02:57:07.533Z,17.78
2018-08-19T02:58:07.508Z,17.82
2018-08-19T02:59:07.481Z,17.71
2018-08-19T03:00:07.457Z,17.82
2018-08-19T03:01:07.432Z,17.82
2018-08-19T03:02:07.399Z,17.68
2018-08-19T03:03:07.382Z,17.57
2018-08-19T03:04:07.356Z,17.64
2018-08-19T03:05:07.328Z,17.71
2018-08-19T03:06:07.296Z,17.67
2018-08-19T03:07:07.280Z,17.65
2018-08-19T03:08:07.251Z,17.67
2018-08-19T03:09:07.224Z,17.65
2018-08-19T03:10:07.203Z,17.65
2018-08-19T03:11:07.168Z,17.57
2018-08-19T03:12:07.145Z,17.56
2018-08-19T03:13:07.130Z,17.51
2018-08-19T03:14:07.101Z,17.54
2018-08-19T03:15:07.207Z,17.54
2018-08-19T03:16:07.055Z,17.52
2018-08-19T03:17:07.024Z,17.45
2018-08-19T03:18:06.993Z,17.44
2018-08-19T03:19:06.976Z,17.60
2018-08-19T03:20:06.946Z,17.54
2018-08-19T03:21:06.926Z,17.51
2018-08-19T03:22:06.906Z,17.51
2018-08-19T03:23:06.871Z,17.44
2018-08-19T03:24:06.861Z,17.45
2018-08-19T03:25:06.826Z,17.42
2018-08-19T03:26:06.788Z,17.38
2018-08-19T03:27:06.775Z,17.39
2018-08-19T03:28:06.763Z,17.45
2018-08-19T03:29:06.724Z,17.38
2018-08-19T03:30:06.689Z,17.45
2018-08-19T03:31:06.672Z,17.41
2018-08-19T03:32:06.645Z,17.44
2018-08-19T03:33:06.626Z,17.52
2018-08-19T03:34:06.596Z,17.44
2018-08-19T03:35:06.571Z,17.44
2018-08-19T03:36:06.555Z,17.52
2018-08-19T03:37:06.542Z,17.51
2018-08-19T03:38:06.548Z,17.41
2018-08-19T03:39:06.468Z,17.41
2018-08-19T03:40:06.435Z,17.52
2018-08-19T03:41:06.418Z,17.42
2018-08-19T03:42:06.386Z,17.42
2018-08-19T03:43:06.366Z,17.51
2018-08-19T03:44:06.336Z,17.60
2018-08-19T03:45:06.316Z,17.51
2018-08-19T03:46:06.286Z,17.56
2018-08-19T03:47:06.267Z,17.67
2018-08-19T03:48:06.242Z,17.59
2018-08-19T03:49:06.209Z,17.60
2018-08-19T03:50:06.187Z,17.54
2018-08-19T03:51:06.164Z,17.57
2018-08-19T03:52:06.142Z,17.48
2018-08-19T03:53:06.113Z,17.44
2018-08-19T03:54:06.082Z,17.42
2018-08-19T03:55:06.067Z,17.39
2018-08-19T03:56:06.039Z,17.44
2018-08-19T03:57:06.006Z,17.31
2018-08-19T03:58:06.004Z,17.31
2018-08-19T03:59:05.974Z,17.27
2018-08-19T04:00:05.931Z,17.30
2018-08-19T04:01:05.911Z,17.30
2018-08-19T04:02:05.875Z,17.29
2018-08-19T04:03:05.854Z,17.30
2018-08-19T04:04:05.852Z,17.33
2018-08-19T04:05:05.803Z,17.33
2018-08-19T04:06:05.795Z,17.33
2018-08-19T04:07:05.760Z,17.29
2018-08-19T04:08:05.728Z,17.31
2018-08-19T04:09:05.699Z,17.22
2018-08-19T04:10:05.680Z,17.33
2018-08-19T04:11:05.662Z,17.30
2018-08-19T04:12:05.629Z,17.33
2018-08-19T04:13:05.600Z,17.30
2018-08-19T04:14:05.581Z,17.29
2018-08-19T04:15:05.550Z,17.31
2018-08-19T04:16:05.526Z,17.24
2018-08-19T04:17:05.502Z,17.23
2018-08-19T04:18:05.490Z,17.30
2018-08-19T04:19:05.450Z,17.31
2018-08-19T04:20:05.428Z,17.26
2018-08-19T04:21:05.395Z,17.29
2018-08-19T04:22:05.372Z,17.33
2018-08-19T04:23:05.356Z,17.34
2018-08-19T04:24:05.320Z,17.39
2018-08-19T04:25:05.296Z,17.29
2018-08-19T04:26:05.270Z,17.24
2018-08-19T04:27:05.251Z,17.36
2018-08-19T04:28:05.227Z,17.27
2018-08-19T04:29:05.196Z,17.27
2018-08-19T04:30:05.166Z,17.36
2018-08-19T04:31:05.152Z,17.29
2018-08-19T04:32:05.117Z,17.33
2018-08-19T04:33:05.107Z,17.29
2018-08-19T04:34:05.074Z,17.24
2018-08-19T04:35:05.041Z,17.22
2018-08-19T04:36:05.016Z,17.22
2018-08-19T04:37:04.992Z,17.20
2018-08-19T04:38:04.966Z,17.22
2018-08-19T04:39:04.936Z,17.23
2018-08-19T04:40:04.921Z,17.12
2018-08-19T04:41:04.897Z,17.20
2018-08-19T04:42:04.861Z,17.12
2018-08-19T04:43:04.848Z,17.23
2018-08-19T04:44:04.819Z,17.22
2018-08-19T04:45:04.791Z,17.22
2018-08-19T04:46:04.763Z,17.29
2018-08-19T04:47:04.749Z,17.20
2018-08-19T04:48:04.713Z,17.27
2018-08-19T04:49:04.687Z,17.30
2018-08-19T04:50:04.661Z,17.31
2018-08-19T04:51:04.638Z,17.31
2018-08-19T04:52:04.614Z,17.33
2018-08-19T04:53:04.585Z,17.33
2018-08-19T04:54:04.572Z,17.29
2018-08-19T04:55:04.541Z,17.39
2018-08-19T04:56:04.507Z,17.42
2018-08-19T04:57:04.501Z,17.45
2018-08-19T04:58:04.460Z,17.44
2018-08-19T04:59:04.431Z,17.42
2018-08-19T05:00:04.408Z,17.46
2018-08-19T05:01:04.379Z,17.42
2018-08-19T05:02:04.428Z,17.42
2018-08-19T05:03:04.330Z,17.26
2018-08-19T05:04:04.309Z,17.31
2018-08-19T05:05:04.286Z,17.30
2018-08-19T05:06:04.254Z,17.33
2018-08-19T05:07:04.233Z,17.23
2018-08-19T05:08:04.221Z,17.29
2018-08-19T05:09:04.182Z,17.27
2018-08-19T05:10:04.151Z,17.31
2018-08-19T05:11:04.135Z,17.30
2018-08-19T05:12:04.097Z,17.31
2018-08-19T05:13:04.080Z,17.29
2018-08-19T05:14:04.068Z,17.29
2018-08-19T05:15:04.033Z,17.29
2018-08-19T05:16:04.002Z,17.30
2018-08-19T05:17:03.971Z,17.29
2018-08-19T05:18:03.950Z,17.19
2018-08-19T05:19:03.920Z,17.23
2018-08-19T05:20:03.899Z,17.29
2018-08-19T05:21:03.889Z,17.23
2018-08-19T05:22:03.851Z,17.31
2018-08-19T05:23:03.819Z,17.34
2018-08-19T05:24:03.797Z,17.38
2018-08-19T05:25:03.773Z,17.41
2018-08-19T05:26:03.763Z,17.42
2018-08-19T05:27:03.722Z,17.57
2018-08-19T05:28:03.694Z,17.49
2018-08-19T05:29:03.673Z,17.44
2018-08-19T05:30:03.639Z,17.45
2018-08-19T05:31:03.647Z,17.36
2018-08-19T05:32:03.595Z,17.38
2018-08-19T05:33:03.566Z,17.33
2018-08-19T05:34:03.541Z,17.29
2018-08-19T05:35:03.515Z,17.30
2018-08-19T05:36:03.489Z,17.26
2018-08-19T05:37:03.466Z,17.31
2018-08-19T05:38:03.468Z,17.34
2018-08-19T05:39:03.417Z,17.36
2018-08-19T05:40:03.393Z,17.38
2018-08-19T05:41:03.384Z,17.39
2018-08-19T05:42:03.332Z,17.36
2018-08-19T05:43:03.316Z,17.42
2018-08-19T05:44:03.290Z,17.33
2018-08-19T05:45:03.261Z,17.39
2018-08-19T05:46:03.429Z,17.34
2018-08-19T05:47:03.339Z,17.44
2018-08-19T05:48:03.232Z,17.42
2018-08-19T05:49:03.165Z,17.38
2018-08-19T05:50:03.268Z,17.45
2018-08-19T05:51:03.143Z,17.57
2018-08-19T05:52:03.128Z,17.57
2018-08-19T05:53:03.076Z,17.63
2018-08-19T05:54:03.076Z,17.59
2018-08-19T05:55:03.021Z,17.59
2018-08-19T05:56:02.986Z,17.63
2018-08-19T05:57:02.961Z,17.68
2018-08-19T05:58:02.933Z,17.67
2018-08-19T05:59:02.908Z,17.64
2018-08-19T06:00:02.886Z,17.68
2018-08-19T06:01:02.946Z,17.64
2018-08-19T06:02:02.824Z,17.67
2018-08-19T06:03:02.820Z,17.60
2018-08-19T06:04:02.782Z,17.70
2018-08-19T06:05:02.765Z,17.70
2018-08-19T06:06:02.730Z,17.63
2018-08-19T06:07:02.723Z,17.64
2018-08-19T06:08:02.677Z,17.71
2018-08-19T06:09:02.656Z,17.74
2018-08-19T06:10:02.626Z,17.74
2018-08-19T06:11:02.602Z,17.71
2018-08-19T06:12:02.575Z,17.70
2018-08-19T06:13:02.553Z,17.85
2018-08-19T06:14:02.555Z,17.76
2018-08-19T06:15:02.563Z,17.79
2018-08-19T06:16:02.502Z,17.87
2018-08-19T06:17:02.498Z,17.83
2018-08-19T06:18:02.428Z,17.89
2018-08-19T06:19:02.396Z,17.80
2018-08-19T06:20:02.374Z,17.92
2018-08-19T06:21:02.350Z,17.86
2018-08-19T06:22:02.408Z,18.00
2018-08-19T06:23:02.295Z,18.05
2018-08-19T06:24:02.275Z,18.00
2018-08-19T06:25:02.259Z,18.07
2018-08-19T06:26:02.333Z,18.00
2018-08-19T06:27:02.240Z,18.08
2018-08-19T06:28:02.171Z,18.11
2018-08-19T06:29:02.148Z,18.08
2018-08-19T06:30:02.135Z,18.16
2018-08-19T06:31:02.103Z,18.19
2018-08-19T06:32:02.068Z,18.13
2018-08-19T06:33:02.049Z,18.15
2018-08-19T06:34:02.019Z,18.28
2018-08-19T06:35:02.203Z,18.35
2018-08-19T06:36:01.971Z,18.25
2018-08-19T06:37:01.947Z,18.33
2018-08-19T06:38:01.925Z,18.29
2018-08-19T06:39:01.897Z,18.29
2018-08-19T06:40:01.873Z,18.29
2018-08-19T06:41:01.860Z,18.38
2018-08-19T06:42:01.822Z,18.40
2018-08-19T06:43:01.804Z,18.45
2018-08-19T06:44:01.771Z,18.47
2018-08-19T06:45:01.742Z,18.53
2018-08-19T06:46:01.711Z,18.49
2018-08-19T06:47:01.696Z,18.50
2018-08-19T06:48:01.670Z,18.59
2018-08-19T06:49:01.637Z,18.52
2018-08-19T06:50:01.619Z,18.63
2018-08-19T06:51:01.585Z,18.60
2018-08-19T06:52:01.567Z,18.66
2018-08-19T06:53:01.541Z,18.58
2018-08-19T06:54:01.514Z,18.63
2018-08-19T06:55:01.491Z,18.63
2018-08-19T06:56:01.465Z,18.73
2018-08-19T06:57:01.436Z,18.81
2018-08-19T06:58:01.417Z,18.83
2018-08-19T06:59:01.385Z,18.75
2018-08-19T07:00:01.363Z,18.89
2018-08-19T07:01:01.341Z,18.84
2018-08-19T07:02:01.310Z,18.89
2018-08-19T07:03:01.293Z,18.93
2018-08-19T07:04:01.308Z,18.98
2018-08-19T07:05:01.252Z,18.99
2018-08-19T07:06:01.216Z,18.98
2018-08-19T07:07:01.185Z,19.02
2018-08-19T07:08:01.170Z,19.09
2018-08-19T07:09:01.134Z,19.15
2018-08-19T07:10:01.110Z,19.15
2018-08-19T07:11:01.083Z,19.19
2018-08-19T07:12:01.088Z,19.19
2018-08-19T07:13:01.043Z,19.18
2018-08-19T07:14:01.010Z,19.22
2018-08-19T07:15:00.987Z,19.24
2018-08-19T07:16:00.970Z,19.29
2018-08-19T07:17:00.936Z,19.24
2018-08-19T07:18:00.905Z,19.34
2018-08-19T07:19:00.891Z,19.37
2018-08-19T07:20:00.903Z,19.41
2018-08-19T07:21:00.842Z,19.27
2018-08-19T07:22:00.813Z,19.34
2018-08-19T07:23:00.792Z,19.37
2018-08-19T07:24:00.765Z,19.44
2018-08-19T07:25:00.737Z,19.45
2018-08-19T07:26:00.712Z,19.44
2018-08-19T07:27:00.684Z,19.56
2018-08-19T07:28:00.671Z,19.49
2018-08-19T07:29:00.637Z,19.45
2018-08-19T07:30:00.603Z,19.52
2018-08-19T07:31:00.591Z,19.56
2018-08-19T07:32:00.556Z,19.62
2018-08-19T07:33:00.537Z,19.58
2018-08-19T07:34:00.506Z,19.63
2018-08-19T07:35:00.485Z,19.56
2018-08-19T07:36:00.457Z,19.52
2018-08-19T07:37:00.545Z,19.67
2018-08-19T07:38:00.409Z,19.64
2018-08-19T07:39:00.384Z,19.70
2018-08-19T07:40:00.359Z,19.77
2018-08-19T07:41:00.339Z,19.77
2018-08-19T07:42:00.311Z,19.73
2018-08-19T07:43:00.284Z,19.79
2018-08-19T07:44:00.379Z,19.84
2018-08-19T07:45:00.229Z,19.84
2018-08-19T07:46:00.206Z,19.85
2018-08-19T07:47:00.187Z,19.86
2018-08-19T07:48:00.171Z,19.92
2018-08-19T07:49:00.130Z,20.00
2018-08-19T07:50:00.112Z,19.94
2018-08-19T07:51:00.081Z,19.94
2018-08-19T07:52:00.054Z,19.91
2018-08-19T07:53:00.074Z,20.10
2018-08-19T07:54:00.013Z,20.06
2018-08-19T07:55:00.011Z,20.06
2018-08-19T07:55:59.963Z,20.00
2018-08-19T07:56:59.935Z,20.11
2018-08-19T07:57:59.904Z,20.13
2018-08-19T07:58:59.881Z,20.13
2018-08-19T07:59:59.860Z,20.22
2018-08-19T08:00:59.831Z,20.13
2018-08-19T08:01:59.805Z,20.19
2018-08-19T08:02:59.787Z,20.16
2018-08-19T08:03:59.759Z,20.19
2018-08-19T08:04:59.728Z,20.24
2018-08-19T08:05:59.712Z,20.11
2018-08-19T08:06:59.681Z,20.24
2018-08-19T08:07:59.655Z,20.21
2018-08-19T08:08:59.632Z,20.26
2018-08-19T08:09:59.606Z,20.26
2018-08-19T08:10:59.623Z,20.26
2018-08-19T08:11:59.561Z,20.25
2018-08-19T08:12:59.537Z,20.34
2018-08-19T08:13:59.525Z,20.34
2018-08-19T08:14:59.476Z,20.32
2018-08-19T08:15:59.457Z,20.29
2018-08-19T08:16:59.435Z,20.41
2018-08-19T08:17:59.410Z,20.36
2018-08-19T08:18:59.390Z,20.43
2018-08-19T08:19:59.355Z,20.48
2018-08-19T08:20:59.333Z,20.52
2018-08-19T08:21:59.302Z,20.52
2018-08-19T08:22:59.287Z,20.56
2018-08-19T08:23:59.256Z,20.56
2018-08-19T08:24:59.235Z,20.58
2018-08-19T08:25:59.268Z,20.65
2018-08-19T08:26:59.180Z,20.62
2018-08-19T08:27:59.161Z,20.69
2018-08-19T08:28:59.133Z,20.66
2018-08-19T08:29:59.108Z,20.69
2018-08-19T08:30:59.083Z,20.67
2018-08-19T08:31:59.053Z,20.77
2018-08-19T08:32:59.037Z,20.66
2018-08-19T08:33:59.004Z,20.72
2018-08-19T08:34:58.991Z,20.74
2018-08-19T08:35:58.953Z,20.77
2018-08-19T08:36:58.935Z,20.78
2018-08-19T08:37:58.908Z,20.82
2018-08-19T08:38:58.905Z,20.77
2018-08-19T08:39:58.857Z,20.85
2018-08-19T08:40:58.835Z,20.95
2018-08-19T08:41:58.811Z,20.97
2018-08-19T08:42:58.795Z,21.03
2018-08-19T08:43:58.752Z,21.02
2018-08-19T08:44:58.731Z,21.11
2018-08-19T08:45:58.705Z,21.02
2018-08-19T08:46:58.682Z,21.14
2018-08-19T08:47:58.722Z,21.17
2018-08-19T08:48:58.636Z,21.21
2018-08-19T08:49:58.611Z,21.17
2018-08-19T08:50:58.609Z,21.22
2018-08-19T08:51:58.562Z,21.29
2018-08-19T08:52:58.528Z,21.32
2018-08-19T08:53:58.508Z,21.42
2018-08-19T08:54:58.480Z,21.46
2018-08-19T08:55:58.462Z,21.37
2018-08-19T08:56:58.438Z,21.46
2018-08-19T08:57:58.406Z,21.36
2018-08-19T08:58:58.398Z,21.42
2018-08-19T08:59:58.362Z,21.48
2018-08-19T09:00:58.335Z,21.50
2018-08-19T09:01:58.306Z,21.48
2018-08-19T09:02:58.290Z,21.45
2018-08-19T09:03:58.258Z,21.42
2018-08-19T09:04:58.241Z,21.45
2018-08-19T09:05:58.208Z,21.51
2018-08-19T09:06:58.192Z,21.50
2018-08-19T09:07:58.169Z,21.45
2018-08-19T09:08:58.138Z,21.39
2018-08-19T09:09:58.116Z,21.42
2018-08-19T09:10:58.094Z,21.37
2018-08-19T09:11:58.062Z,21.45
2018-08-19T09:12:58.038Z,21.33
2018-08-19T09:13:58.147Z,21.35
2018-08-19T09:14:57.984Z,21.32
2018-08-19T09:15:57.962Z,21.32
2018-08-19T09:16:57.942Z,21.21
2018-08-19T09:17:57.919Z,21.33
2018-08-19T09:18:57.887Z,21.27
2018-08-19T09:19:57.865Z,21.24
2018-08-19T09:20:57.839Z,21.21
2018-08-19T09:21:57.816Z,21.25
2018-08-19T09:22:57.846Z,21.25
2018-08-19T09:23:57.762Z,21.27
2018-08-19T09:24:57.757Z,21.27
2018-08-19T09:25:57.800Z,21.17
2018-08-19T09:26:57.693Z,21.17
2018-08-19T09:27:57.786Z,21.07
2018-08-19T09:28:57.654Z,21.11
2018-08-19T09:29:57.621Z,21.11
2018-08-19T09:30:57.591Z,21.14
2018-08-19T09:31:57.561Z,21.14
2018-08-19T09:32:57.603Z,21.21
2018-08-19T09:33:57.624Z,21.27
2018-08-19T09:34:57.500Z,21.27
2018-08-19T09:35:57.473Z,21.36
2018-08-19T09:36:57.439Z,21.32
2018-08-19T09:37:57.422Z,21.33
2018-08-19T09:38:57.388Z,21.43
2018-08-19T09:39:57.364Z,21.43
2018-08-19T09:40:57.345Z,21.39
2018-08-19T09:41:57.312Z,21.40
2018-08-19T09:42:57.297Z,21.48
2018-08-19T09:43:57.273Z,21.51
2018-08-19T09:44:57.243Z,21.66
2018-08-19T09:45:57.451Z,21.66
2018-08-19T09:46:57.204Z,21.73
2018-08-19T09:47:57.362Z,21.76
2018-08-19T09:48:57.145Z,21.83
2018-08-19T09:49:57.114Z,21.80
2018-08-19T09:50:57.097Z,21.91
2018-08-19T09:51:57.073Z,21.91
2018-08-19T09:52:57.055Z,21.99
2018-08-19T09:53:57.017Z,22.18
2018-08-19T09:54:57.000Z,22.23
2018-08-19T09:55:56.968Z,22.32
2018-08-19T09:56:56.949Z,22.43
2018-08-19T09:57:56.919Z,22.44
2018-08-19T09:58:56.903Z,22.59
2018-08-19T09:59:56.873Z,22.62
2018-08-19T10:00:56.850Z,22.66
2018-08-19T10:01:56.822Z,22.68
2018-08-19T10:02:56.798Z,22.55
2018-08-19T10:03:56.769Z,22.57
2018-08-19T10:04:56.761Z,22.55
2018-08-19T10:05:56.739Z,22.38
2018-08-19T10:06:56.697Z,22.43
2018-08-19T10:07:56.678Z,22.28
2018-08-19T10:08:56.653Z,22.32
2018-08-19T10:09:56.631Z,22.29
2018-08-19T10:10:56.613Z,22.29
2018-08-19T10:11:56.583Z,22.29
2018-08-19T10:12:56.563Z,22.30
2018-08-19T10:13:56.530Z,22.25
2018-08-19T10:14:56.505Z,22.23
2018-08-19T10:15:56.525Z,22.28
2018-08-19T10:16:56.462Z,22.26
2018-08-19T10:17:56.428Z,22.22
2018-08-19T10:18:56.407Z,22.18
2018-08-19T10:19:56.385Z,22.18
2018-08-19T10:20:56.352Z,22.11
2018-08-19T10:21:56.331Z,22.14
2018-08-19T10:22:56.310Z,22.11
2018-08-19T10:23:56.277Z,22.14
2018-08-19T10:24:56.261Z,22.25
2018-08-19T10:25:56.245Z,22.22
2018-08-19T10:26:56.212Z,22.25
2018-08-19T10:27:56.182Z,22.22
2018-08-19T10:28:56.166Z,22.33
2018-08-19T10:29:56.133Z,22.35
2018-08-19T10:30:56.112Z,22.28
2018-08-19T10:31:56.091Z,22.39
2018-08-19T10:32:56.059Z,22.33
2018-08-19T10:33:56.044Z,22.41
2018-08-19T10:34:56.044Z,22.45
2018-08-19T10:35:55.988Z,22.51
2018-08-19T10:36:55.968Z,22.50
2018-08-19T10:37:55.947Z,22.45
2018-08-19T10:38:55.912Z,22.44
2018-08-19T10:39:55.894Z,22.54
2018-08-19T10:40:55.861Z,22.57
2018-08-19T10:41:55.848Z,22.54
2018-08-19T10:42:55.812Z,22.59
2018-08-19T10:43:55.791Z,22.65
2018-08-19T10:44:55.770Z,22.69
2018-08-19T10:45:55.739Z,22.75
2018-08-19T10:46:55.723Z,22.69
2018-08-19T10:47:55.695Z,22.75
2018-08-19T10:48:55.668Z,22.85
2018-08-19T10:49:55.647Z,22.78
2018-08-19T10:50:55.617Z,22.90
2018-08-19T10:51:55.601Z,22.90
2018-08-19T10:52:55.574Z,22.98
2018-08-19T10:53:55.548Z,23.00
2018-08-19T10:54:55.521Z,22.99
2018-08-19T10:55:55.501Z,23.05
2018-08-19T10:56:55.676Z,23.09
2018-08-19T10:57:55.444Z,23.15
2018-08-19T10:58:55.432Z,23.12
2018-08-19T10:59:55.484Z,23.10
2018-08-19T11:00:55.386Z,23.10
2018-08-19T11:01:55.351Z,23.13
2018-08-19T11:02:55.331Z,23.27
2018-08-19T11:03:55.311Z,23.31
2018-08-19T11:04:55.282Z,23.32
2018-08-19T11:05:55.264Z,23.20
2018-08-19T11:06:55.230Z,23.36
2018-08-19T11:07:55.211Z,23.39
2018-08-19T11:08:55.183Z,23.40
2018-08-19T11:09:55.163Z,23.37
2018-08-19T11:10:55.146Z,23.32
2018-08-19T11:11:55.119Z,23.41
2018-08-19T11:12:55.087Z,23.37
2018-08-19T11:13:55.068Z,23.31
2018-08-19T11:14:55.038Z,23.40
2018-08-19T11:15:55.013Z,23.37
2018-08-19T11:16:54.991Z,23.36
2018-08-19T11:17:54.970Z,23.41
2018-08-19T11:18:54.945Z,23.40
2018-08-19T11:19:54.915Z,23.37
2018-08-19T11:20:54.901Z,23.43
2018-08-19T11:21:54.873Z,23.44
2018-08-19T11:22:54.845Z,23.41
2018-08-19T11:23:54.820Z,23.46
2018-08-19T11:24:54.792Z,23.56
2018-08-19T11:25:54.770Z,23.48
2018-08-19T11:26:54.756Z,23.56
2018-08-19T11:27:54.721Z,23.58
2018-08-19T11:28:54.706Z,23.55
2018-08-19T11:29:54.671Z,23.59
2018-08-19T11:30:54.655Z,23.61
2018-08-19T11:31:54.629Z,23.63
2018-08-19T11:32:54.603Z,23.68
2018-08-19T11:33:54.589Z,23.69
2018-08-19T11:34:54.550Z,23.65
2018-08-19T11:35:54.530Z,23.61
2018-08-19T11:36:54.511Z,23.65
2018-08-19T11:37:54.485Z,23.66
2018-08-19T11:38:54.463Z,23.65
2018-08-19T11:39:54.431Z,23.62
2018-08-19T11:40:54.410Z,23.65
2018-08-19T11:41:54.386Z,23.68
2018-08-19T11:42:54.364Z,23.71
2018-08-19T11:43:54.343Z,23.73
2018-08-19T11:44:54.319Z,23.84
2018-08-19T11:45:54.288Z,23.80
2018-08-19T11:46:54.267Z,23.93
2018-08-19T11:47:54.273Z,23.92
2018-08-19T11:48:54.254Z,23.95
2018-08-19T11:49:54.197Z,23.92
2018-08-19T11:50:54.167Z,24.01
2018-08-19T11:51:54.144Z,24.05
2018-08-19T11:52:54.127Z,24.06
2018-08-19T11:53:54.096Z,24.03
2018-08-19T11:54:54.075Z,24.06
2018-08-19T11:55:54.068Z,24.13
2018-08-19T11:56:54.027Z,24.23
2018-08-19T11:57:54.006Z,24.18
2018-08-19T11:58:53.984Z,24.17
2018-08-19T11:59:53.954Z,24.18
2018-08-19T12:00:53.982Z,24.11
2018-08-19T12:01:53.901Z,24.18
2018-08-19T12:02:53.888Z,24.20
2018-08-19T12:03:53.858Z,24.20
2018-08-19T12:04:53.845Z,24.21
2018-08-19T12:05:53.812Z,24.28
2018-08-19T12:06:53.787Z,24.29
2018-08-19T12:07:53.760Z,24.32
2018-08-19T12:08:53.743Z,24.36
2018-08-19T12:09:53.708Z,24.32
2018-08-19T12:10:53.696Z,24.32
2018-08-19T12:11:53.668Z,24.39
2018-08-19T12:12:53.647Z,24.35
2018-08-19T12:13:53.626Z,24.38
2018-08-19T12:14:53.601Z,24.42
2018-08-19T12:15:53.571Z,24.36
2018-08-19T12:16:53.603Z,24.43
2018-08-19T12:17:53.522Z,24.32
2018-08-19T12:18:53.500Z,24.38
2018-08-19T12:19:53.475Z,24.45
2018-08-19T12:20:53.454Z,24.39
2018-08-19T12:21:53.424Z,24.45
2018-08-19T12:22:53.407Z,24.39
2018-08-19T12:23:53.375Z,24.35
2018-08-19T12:24:53.364Z,24.36
2018-08-19T12:25:53.339Z,24.35
2018-08-19T12:26:53.313Z,24.48
2018-08-19T12:27:53.371Z,24.43
2018-08-19T12:28:53.272Z,24.48
2018-08-19T12:29:53.247Z,24.48
2018-08-19T12:30:53.703Z,24.51
2018-08-19T12:31:53.234Z,24.51
2018-08-19T12:32:53.165Z,24.48
2018-08-19T12:33:53.160Z,24.45
2018-08-19T12:34:53.122Z,24.42
2018-08-19T12:35:53.101Z,24.45
2018-08-19T12:36:53.069Z,24.48
2018-08-19T12:37:53.068Z,24.57
2018-08-19T12:38:53.017Z,24.53
2018-08-19T12:39:52.998Z,24.53
2018-08-19T12:40:52.976Z,24.53
2018-08-19T12:41:52.946Z,24.57
2018-08-19T12:42:52.934Z,24.55
2018-08-19T12:43:52.906Z,24.57
2018-08-19T12:44:52.960Z,24.57
2018-08-19T12:45:52.852Z,24.60
2018-08-19T12:46:52.828Z,24.74
2018-08-19T12:47:52.817Z,24.69
2018-08-19T12:48:52.790Z,24.65
2018-08-19T12:49:52.759Z,24.69
2018-08-19T12:50:52.734Z,24.68
2018-08-19T12:51:52.779Z,24.65